createdAt,value
2023-04-13T00:01:32.819Z,96.71
2023-04-13T00:04:03.745Z,96.95
2023-04-13T00:06:30.610Z,97.32
2023-04-13T00:08:58.746Z,97.06
2023-04-13T00:11:27.779Z,95.39
2023-04-13T00:13:55.244Z,95.33
2023-04-13T00:16:22.289Z,95.33
2023-04-13T00:18:50.412Z,93.56
2023-04-13T00:21:17.274Z,94.69
2023-04-13T00:23:44.705Z,95.44
2023-04-13T00:26:11.336Z,94.21
2023-04-13T00:28:37.932Z,95.78
2023-04-13T00:31:04.713Z,95.02
2023-04-13T00:33:32.345Z,95.03
2023-04-13T00:35:59.500Z,95.72
2023-04-13T00:38:29.792Z,98.11
2023-04-13T00:40:56.339Z,95.56
2023-04-13T00:43:23.482Z,95.80
2023-04-13T00:45:50.117Z,93.51
2023-04-13T00:48:16.955Z,93.32
2023-04-13T00:50:45.093Z,93.08
2023-04-13T00:53:13.689Z,91.50
2023-04-13T00:55:42.642Z,91.31
2023-04-13T00:58:09.411Z,90.98
2023-04-13T01:00:39.635Z,90.16
2023-04-13T01:03:06.841Z,90.78
2023-04-13T01:05:43.146Z,90.94
2023-04-13T01:08:26.053Z,90.69
2023-04-13T01:11:11.234Z,89.59
2023-04-13T01:13:45.136Z,89.70
2023-04-13T01:16:19.986Z,88.47
2023-04-13T01:18:52.820Z,87.35
2023-04-13T01:21:24.746Z,88.82
2023-04-13T01:24:18.211Z,87.30
2023-04-13T01:26:52.771Z,88.90
2023-04-13T01:29:19.640Z,89.26
2023-04-13T01:31:48.813Z,89.49
2023-04-13T01:34:16.556Z,89.84
2023-04-13T01:36:43.762Z,90.75
2023-04-13T01:39:18.578Z,93.11
2023-04-13T01:41:45.213Z,90.99
2023-04-13T01:44:13.141Z,89.03
2023-04-13T01:46:46.254Z,88.46
2023-04-13T01:50:01.854Z,89.29
2023-04-13T01:52:37.760Z,86.94
2023-04-13T01:55:06.967Z,87.72
2023-04-13T01:57:37.471Z,86.72
2023-04-13T02:00:12.105Z,86.23
2023-04-13T02:02:39.396Z,87.18
2023-04-13T02:05:07.470Z,84.63
2023-04-13T02:07:34.711Z,85.84
2023-04-13T02:10:01.196Z,85.03
2023-04-13T02:12:28.672Z,84.85
2023-04-13T02:14:56.564Z,84.12
2023-04-13T02:17:25.448Z,83.40
2023-04-13T02:19:51.969Z,84.00
2023-04-13T02:22:18.450Z,83.95
2023-04-13T02:24:47.523Z,83.79
2023-04-13T02:27:14.164Z,82.57
2023-04-13T02:29:41.789Z,81.86
2023-04-13T02:32:08.339Z,82.44
2023-04-13T02:34:35.483Z,83.71
2023-04-13T02:37:02.821Z,82.75
2023-04-13T02:39:29.483Z,82.47
2023-04-13T02:41:56.392Z,82.96
2023-04-13T02:44:23.536Z,82.48
2023-04-13T02:46:55.475Z,83.28
2023-04-13T02:49:22.428Z,84.19
2023-04-13T02:52:09.312Z,83.77
2023-04-13T02:54:54.529Z,84.11
2023-04-13T02:57:25.202Z,83.71
2023-04-13T02:59:53.278Z,84.65
2023-04-13T03:02:23.311Z,85.04
2023-04-13T03:04:50.385Z,83.83
2023-04-13T03:07:17.122Z,84.58
2023-04-13T03:09:48.179Z,84.99
2023-04-13T03:12:17.077Z,84.33
2023-04-13T03:14:45.438Z,85.13
2023-04-13T03:17:12.646Z,84.95
2023-04-13T03:19:44.806Z,85.12
2023-04-13T03:22:13.005Z,87.31
2023-04-13T03:24:44.861Z,86.06
2023-04-13T03:27:17.292Z,85.89
2023-04-13T03:29:47.941Z,85.06
2023-04-13T03:32:20.575Z,86.00
2023-04-13T03:34:50.409Z,86.01
2023-04-13T03:37:17.934Z,86.93
2023-04-13T03:39:44.897Z,87.26
2023-04-13T03:42:16.054Z,86.83
2023-04-13T03:44:50.831Z,86.36
2023-04-13T03:47:17.353Z,87.58
2023-04-13T03:49:44.677Z,86.21
2023-04-13T03:52:11.207Z,87.14
2023-04-13T03:54:41.512Z,88.55
2023-04-13T03:57:08.753Z,87.51
2023-04-13T03:59:36.039Z,87.90
2023-04-13T04:02:04.714Z,88.86
2023-04-13T04:04:34.414Z,88.79
2023-04-13T04:07:00.982Z,88.05
2023-04-13T04:09:27.675Z,88.52
2023-04-13T04:11:56.577Z,87.18
2023-04-13T04:14:35.153Z,88.07
2023-04-13T04:17:10.160Z,87.20
2023-04-13T04:19:37.490Z,87.32
2023-04-13T04:22:06.982Z,87.54
2023-04-13T04:24:37.805Z,87.92
2023-04-13T04:27:05.817Z,87.64
2023-04-13T04:29:35.730Z,87.60
2023-04-13T04:32:13.185Z,88.75
2023-04-13T04:34:41.022Z,89.50
2023-04-13T04:37:20.422Z,88.54
2023-04-13T04:39:56.001Z,88.09
2023-04-13T04:42:22.693Z,88.54
2023-04-13T04:44:50.256Z,89.94
2023-04-13T04:47:19.676Z,88.47
2023-04-13T04:50:05.405Z,88.56
2023-04-13T04:52:37.593Z,88.96
2023-04-13T04:55:06.317Z,89.17
2023-04-13T04:57:34.499Z,88.89
2023-04-13T05:00:09.331Z,89.02
2023-04-13T05:02:37.110Z,89.22
2023-04-13T05:05:06.924Z,88.82
2023-04-13T05:07:33.544Z,88.13
2023-04-13T05:10:00.112Z,88.10
2023-04-13T05:12:26.611Z,88.10
2023-04-13T05:14:53.244Z,88.78
2023-04-13T05:17:19.875Z,89.30
2023-04-13T05:19:47.145Z,87.26
2023-04-13T05:22:21.244Z,87.18
2023-04-13T05:24:54.848Z,88.35
2023-04-13T05:27:22.004Z,88.54
2023-04-13T05:29:48.498Z,88.24
2023-04-13T05:32:20.479Z,88.62
2023-04-13T05:34:50.200Z,88.37
2023-04-13T05:37:21.411Z,88.29
2023-04-13T05:39:47.870Z,88.60
2023-04-13T05:42:18.049Z,88.48
2023-04-13T05:44:45.243Z,89.18
2023-04-13T05:47:13.177Z,89.69
2023-04-13T05:49:42.087Z,89.15
2023-04-13T05:52:10.473Z,91.46
2023-04-13T05:54:42.745Z,90.95
2023-04-13T05:57:09.237Z,91.28
2023-04-13T05:59:40.205Z,92.12
2023-04-13T06:02:08.292Z,92.13
2023-04-13T06:04:34.918Z,92.17
2023-04-13T06:07:01.903Z,93.04
2023-04-13T06:09:28.458Z,92.65
2023-04-13T06:11:55.301Z,94.94
2023-04-13T06:14:22.234Z,94.45
2023-04-13T06:16:48.829Z,95.22
2023-04-13T06:19:15.634Z,94.92
2023-04-13T06:21:42.069Z,95.93
2023-04-13T06:24:09.480Z,95.44
2023-04-13T06:26:37.562Z,95.97
2023-04-13T06:29:04.901Z,96.00
2023-04-13T06:31:41.206Z,97.08
2023-04-13T06:34:12.302Z,94.70
2023-04-13T06:36:40.552Z,95.26
2023-04-13T06:39:09.311Z,96.40
2023-04-13T06:41:36.883Z,96.40
2023-04-13T06:44:14.453Z,97.54
2023-04-13T06:46:51.711Z,97.09
2023-04-13T06:49:20.195Z,97.06
2023-04-13T06:51:46.771Z,98.23
2023-04-13T06:54:13.495Z,97.62
2023-04-13T06:56:45.558Z,96.51
2023-04-13T06:59:12.831Z,96.34
2023-04-13T07:01:39.460Z,99.28
2023-04-13T07:04:07.704Z,97.96
2023-04-13T07:06:34.920Z,99.10
2023-04-13T07:09:01.776Z,96.08
2023-04-13T07:11:29.972Z,95.74
2023-04-13T07:13:56.908Z,96.70
2023-04-13T07:16:24.680Z,98.19
2023-04-13T07:18:51.748Z,98.36
2023-04-13T07:21:18.668Z,96.48
2023-04-13T07:23:58.809Z,97.52
2023-04-13T07:26:26.129Z,97.04
2023-04-13T07:28:53.497Z,96.26
2023-04-13T07:31:22.673Z,97.21
2023-04-13T07:33:51.436Z,97.36
2023-04-13T07:36:23.856Z,96.84
2023-04-13T07:38:53.361Z,96.20
2023-04-13T07:41:22.518Z,95.86
2023-04-13T07:43:52.639Z,96.36
2023-04-13T07:46:20.555Z,96.41
2023-04-13T07:48:49.513Z,95.62
2023-04-13T07:51:23.191Z,94.52
2023-04-13T07:53:52.219Z,94.82
2023-04-13T07:56:19.449Z,94.19
2023-04-13T07:58:46.227Z,96.28
2023-04-13T08:01:13.101Z,96.31
2023-04-13T08:03:39.820Z,97.36
2023-04-13T08:06:13.697Z,100.00
2023-04-13T08:08:40.522Z,100.00
2023-04-13T08:11:08.561Z,100.00
2023-04-13T08:13:35.808Z,100.00
2023-04-13T08:16:02.466Z,100.00
2023-04-13T08:18:32.238Z,100.00
2023-04-13T08:20:59.591Z,100.00
2023-04-13T08:23:29.711Z,100.00
2023-04-13T08:26:02.461Z,100.00
2023-04-13T08:28:30.877Z,100.00
2023-04-13T08:30:58.926Z,100.00
2023-04-13T08:33:25.714Z,100.00
2023-04-13T08:35:52.513Z,100.00
2023-04-13T08:38:19.958Z,100.00
2023-04-13T08:40:50.199Z,100.00
2023-04-13T08:43:23.285Z,98.11
2023-04-13T08:45:50.487Z,98.11
2023-04-13T08:48:19.437Z,96.41
2023-04-13T08:50:48.956Z,97.15
2023-04-13T08:53:17.404Z,96.07
2023-04-13T08:55:45.872Z,95.92
2023-04-13T08:58:14.730Z,95.89
2023-04-13T09:00:44.144Z,96.37
2023-04-13T09:03:14.631Z,95.49
2023-04-13T09:05:48.558Z,93.39
2023-04-13T09:08:17.025Z,95.22
2023-04-13T09:10:46.048Z,95.17
2023-04-13T09:13:12.809Z,95.34
2023-04-13T09:15:40.362Z,92.67
2023-04-13T09:18:28.018Z,91.33
2023-04-13T09:21:01.491Z,93.60
2023-04-13T09:23:28.099Z,88.64
2023-04-13T09:26:10.152Z,90.88
2023-04-13T09:28:51.711Z,87.50
2023-04-13T09:31:19.777Z,88.14
2023-04-13T09:33:48.861Z,87.92
2023-04-13T09:36:18.069Z,89.24
2023-04-13T09:38:50.551Z,89.33
2023-04-13T09:41:17.184Z,87.48
2023-04-13T09:43:43.821Z,90.09
2023-04-13T09:46:14.394Z,91.46
2023-04-13T09:48:41.858Z,94.54
2023-04-13T09:51:09.806Z,93.98
2023-04-13T09:53:42.869Z,96.97
2023-04-13T09:56:09.857Z,99.01
2023-04-13T09:58:47.421Z,95.30
2023-04-13T10:01:17.543Z,96.75
2023-04-13T10:03:44.766Z,94.53
2023-04-13T10:06:11.555Z,97.68
2023-04-13T10:08:39.626Z,99.21
2023-04-13T10:11:14.467Z,100.00
2023-04-13T10:13:56.826Z,98.71
2023-04-13T10:16:52.039Z,95.63
2023-04-13T10:19:23.522Z,95.26
2023-04-13T10:21:52.249Z,93.33
2023-04-13T10:24:20.103Z,87.17
2023-04-13T10:26:46.710Z,85.49
2023-04-13T10:29:14.660Z,83.73
2023-04-13T10:31:49.015Z,86.48
2023-04-13T10:34:23.290Z,88.85
2023-04-13T10:36:51.597Z,86.51
2023-04-13T10:39:25.731Z,93.28
2023-04-13T10:42:06.274Z,94.55
2023-04-13T10:44:42.115Z,87.45
2023-04-13T10:47:09.119Z,79.57
2023-04-13T10:49:36.510Z,74.44
2023-04-13T10:52:03.562Z,74.04
2023-04-13T10:54:30.349Z,74.33
2023-04-13T10:56:57.852Z,74.01
2023-04-13T10:59:55.523Z,72.90
2023-04-13T11:02:26.369Z,69.91
2023-04-13T11:04:53.540Z,69.15
2023-04-13T11:07:23.330Z,68.65
2023-04-13T11:09:53.105Z,70.95
2023-04-13T11:12:19.848Z,66.45
2023-04-13T11:14:47.615Z,61.10
2023-04-13T11:17:15.753Z,57.96
2023-04-13T11:19:50.385Z,59.02
2023-04-13T11:22:19.189Z,56.27
2023-04-13T11:24:47.576Z,57.30
2023-04-13T11:27:18.073Z,60.82
2023-04-13T11:29:44.974Z,63.72
2023-04-13T11:32:18.750Z,68.03
2023-04-13T11:34:46.943Z,72.13
2023-04-13T11:37:13.395Z,77.24
2023-04-13T11:39:41.814Z,80.93
2023-04-13T11:42:08.415Z,88.20
2023-04-13T11:44:39.057Z,97.20
2023-04-13T11:47:06.485Z,98.50
2023-04-13T11:49:33.768Z,100.00
2023-04-13T11:52:01.928Z,100.00
2023-04-13T11:54:31.929Z,100.00
2023-04-13T11:56:58.463Z,100.00
2023-04-13T11:59:26.453Z,99.97
2023-04-13T12:01:58.297Z,89.90
2023-04-13T12:04:40.960Z,75.61
2023-04-13T12:07:14.021Z,81.15
2023-04-13T12:09:56.011Z,82.73
2023-04-13T12:12:50.468Z,80.74
2023-04-13T12:15:33.992Z,83.48
2023-04-13T12:18:06.444Z,77.36
2023-04-13T12:20:44.121Z,67.93
2023-04-13T12:23:23.407Z,66.12
2023-04-13T12:25:58.444Z,64.97
2023-04-13T12:28:38.264Z,62.06
2023-04-13T12:31:07.431Z,63.65
2023-04-13T12:33:34.355Z,58.29
2023-04-13T12:36:00.991Z,56.10
2023-04-13T12:38:27.496Z,53.70
2023-04-13T12:41:00.976Z,54.87
2023-04-13T12:43:28.469Z,55.09
2023-04-13T12:45:55.626Z,53.88
2023-04-13T12:48:22.478Z,54.56
2023-04-13T12:50:49.278Z,59.87
2023-04-13T12:53:15.775Z,58.15
2023-04-13T12:55:43.307Z,59.27
2023-04-13T12:58:10.846Z,61.07
2023-04-13T13:00:37.804Z,64.25
2023-04-13T13:03:14.191Z,63.48
2023-04-13T13:05:41.984Z,60.85
2023-04-13T13:08:09.122Z,55.82
2023-04-13T13:10:37.289Z,53.12
2023-04-13T13:13:04.092Z,57.62
2023-04-13T13:15:32.373Z,51.25
2023-04-13T13:18:03.069Z,49.97
2023-04-13T13:20:30.211Z,52.34
2023-04-13T13:22:57.115Z,50.93
2023-04-13T13:25:23.865Z,45.66
2023-04-13T13:30:19.914Z,46.38
2023-04-13T13:32:46.433Z,41.59
2023-04-13T13:35:14.805Z,43.36
2023-04-13T13:37:41.269Z,45.47
2023-04-13T13:40:13.014Z,45.57
2023-04-13T13:42:50.627Z,49.78
2023-04-13T13:45:18.167Z,48.16
2023-04-13T13:47:53.622Z,47.99
2023-04-13T13:50:26.702Z,50.43
2023-04-13T13:53:03.749Z,48.18
2023-04-13T13:55:35.826Z,48.98
2023-04-13T13:58:02.410Z,51.55
2023-04-13T14:00:29.121Z,43.92
2023-04-13T14:02:55.749Z,46.97
2023-04-13T14:05:22.576Z,47.11
2023-04-13T14:07:49.349Z,50.83
2023-04-13T14:10:16.201Z,52.04
2023-04-13T14:12:49.643Z,52.77
2023-04-13T14:15:17.217Z,52.79
2023-04-13T14:17:45.524Z,53.94
2023-04-13T14:20:16.829Z,56.24
2023-04-13T14:22:43.413Z,56.99
2023-04-13T14:25:10.567Z,57.27
2023-04-13T14:27:38.057Z,56.41
2023-04-13T14:30:05.403Z,57.20
2023-04-13T14:32:32.401Z,57.43
2023-04-13T14:35:00.367Z,56.05
2023-04-13T14:37:27.884Z,59.01
2023-04-13T14:39:55.060Z,60.05
2023-04-13T14:42:22.400Z,62.01
2023-04-13T14:44:48.861Z,61.15
2023-04-13T14:47:15.842Z,59.89
2023-04-13T14:49:43.225Z,59.35
2023-04-13T14:52:09.669Z,59.95
2023-04-13T14:54:36.663Z,59.60
2023-04-13T14:57:04.655Z,59.85
2023-04-13T14:59:31.515Z,59.67
2023-04-13T15:01:58.018Z,59.34
2023-04-13T15:04:25.072Z,56.78
2023-04-13T15:06:54.084Z,57.67
2023-04-13T15:09:20.977Z,54.23
2023-04-13T15:11:47.460Z,56.55
2023-04-13T15:14:13.942Z,53.50
2023-04-13T15:16:40.507Z,53.84
2023-04-13T15:19:07.023Z,54.50
2023-04-13T15:21:35.607Z,58.62
2023-04-13T15:24:02.113Z,53.31
2023-04-13T15:26:29.741Z,50.88
2023-04-13T15:28:56.209Z,53.19
2023-04-13T15:31:22.805Z,51.59
2023-04-13T15:33:49.370Z,52.21
2023-04-13T15:36:16.647Z,51.50
2023-04-13T15:38:43.258Z,53.55
2023-04-13T15:41:11.200Z,51.74
2023-04-13T15:43:38.190Z,51.58
2023-04-13T15:46:04.963Z,51.29
2023-04-13T15:48:32.128Z,50.65
2023-04-13T15:50:59.728Z,50.34
2023-04-13T15:53:27.215Z,49.79
2023-04-13T15:55:54.046Z,52.56
2023-04-13T15:58:20.620Z,52.60
2023-04-13T16:00:47.384Z,54.05
2023-04-13T16:03:14.056Z,56.19
2023-04-13T16:05:40.795Z,56.93
2023-04-13T16:08:07.997Z,53.65
2023-04-13T16:10:34.589Z,52.97
2023-04-13T16:13:04.297Z,52.68
2023-04-13T16:15:30.861Z,56.75
2023-04-13T16:17:57.551Z,58.10
2023-04-13T16:20:28.276Z,56.19
2023-04-13T16:22:59.226Z,57.21
2023-04-13T16:25:25.883Z,57.88
2023-04-13T16:27:54.171Z,58.29
2023-04-13T16:30:24.320Z,57.05
2023-04-13T16:32:51.294Z,59.85
2023-04-13T16:35:18.051Z,59.03
2023-04-13T16:37:45.130Z,60.87
2023-04-13T16:40:12.757Z,61.53
2023-04-13T16:42:40.771Z,61.73
2023-04-13T16:45:12.903Z,59.85
2023-04-13T16:47:42.042Z,60.61
2023-04-13T16:50:09.936Z,58.55
2023-04-13T16:52:38.804Z,57.30
2023-04-13T16:55:06.220Z,59.40
2023-04-13T16:57:33.176Z,56.93
2023-04-13T17:00:07.104Z,57.19
2023-04-13T17:02:34.212Z,57.97
2023-04-13T17:05:01.124Z,65.14
2023-04-13T17:07:28.277Z,67.05
2023-04-13T17:09:55.674Z,72.72
2023-04-13T17:12:22.852Z,66.49
2023-04-13T17:14:49.812Z,74.90
2023-04-13T17:17:16.418Z,73.03
2023-04-13T17:19:42.888Z,71.73
2023-04-13T17:22:09.512Z,78.63
2023-04-13T17:24:36.632Z,78.54
2023-04-13T17:27:03.142Z,69.93
2023-04-13T17:29:29.649Z,64.55
2023-04-13T17:31:56.563Z,61.95
2023-04-13T17:34:23.118Z,60.75
2023-04-13T17:36:49.581Z,61.68
2023-04-13T17:39:16.025Z,60.40
2023-04-13T17:41:43.183Z,60.22
2023-04-13T17:44:09.714Z,61.36
2023-04-13T17:46:36.613Z,59.56
2023-04-13T17:49:03.218Z,60.15
2023-04-13T17:51:30.777Z,61.97
2023-04-13T17:53:57.202Z,62.13
2023-04-13T17:56:23.657Z,65.61
2023-04-13T17:58:50.157Z,67.88
2023-04-13T18:01:16.942Z,67.13
2023-04-13T18:03:43.808Z,69.08
2023-04-13T18:06:10.874Z,66.66
2023-04-13T18:08:37.313Z,70.59
2023-04-13T18:11:03.978Z,69.54
2023-04-13T18:13:31.459Z,73.38
2023-04-13T18:15:58.077Z,77.83
2023-04-13T18:18:25.065Z,77.19
2023-04-13T18:20:52.474Z,81.24
2023-04-13T18:23:19.851Z,84.35
2023-04-13T18:25:50.356Z,82.60
2023-04-13T18:28:17.496Z,83.46
2023-04-13T18:30:44.947Z,85.93
2023-04-13T18:33:12.112Z,86.88
2023-04-13T18:35:46.170Z,86.19
2023-04-13T18:38:12.706Z,87.08
2023-04-13T18:40:40.301Z,86.20
2023-04-13T18:43:07.739Z,86.97
2023-04-13T18:45:34.425Z,88.26
2023-04-13T18:48:01.143Z,91.85
2023-04-13T18:50:28.075Z,94.39
2023-04-13T18:52:54.790Z,93.87
2023-04-13T18:55:23.016Z,94.61
2023-04-13T18:57:51.754Z,93.78
2023-04-13T19:00:18.664Z,92.79
2023-04-13T19:02:48.301Z,96.07
2023-04-13T19:05:15.430Z,94.91
2023-04-13T19:07:44.724Z,98.58
2023-04-13T19:10:11.409Z,99.38
2023-04-13T19:12:38.012Z,99.81
2023-04-13T19:15:05.007Z,100.00
2023-04-13T19:17:34.148Z,100.00
2023-04-13T19:20:00.902Z,100.00
2023-04-13T19:22:27.395Z,100.00
2023-04-13T19:24:53.852Z,100.00
2023-04-13T19:27:21.199Z,100.00
2023-04-13T19:29:47.653Z,100.00
2023-04-13T19:32:16.604Z,100.00
2023-04-13T19:34:43.264Z,95.12
2023-04-13T19:37:09.953Z,98.90
2023-04-13T19:39:36.402Z,98.01
2023-04-13T19:42:04.995Z,100.00
2023-04-13T19:44:31.617Z,100.00
2023-04-13T19:46:58.150Z,100.00
2023-04-13T19:49:25.720Z,100.00
2023-04-13T19:51:52.212Z,100.00
2023-04-13T19:54:18.998Z,100.00
2023-04-13T19:56:45.529Z,100.00
2023-04-13T19:59:12.208Z,100.00
2023-04-13T20:01:40.550Z,100.00
2023-04-13T20:04:07.175Z,100.00
2023-04-13T20:06:34.084Z,100.00
2023-04-13T20:09:14.237Z,100.00
2023-04-13T20:11:41.766Z,100.00
2023-04-13T20:14:09.651Z,100.00
2023-04-13T20:16:36.135Z,100.00
2023-04-13T20:19:02.780Z,100.00
2023-04-13T20:21:31.074Z,100.00
2023-04-13T20:23:58.188Z,100.00
2023-04-13T20:26:29.652Z,100.00
2023-04-13T20:29:00.985Z,100.00
2023-04-13T20:31:31.651Z,100.00
2023-04-13T20:33:59.052Z,100.00
2023-04-13T20:36:25.710Z,100.00
2023-04-13T20:38:52.829Z,100.00
2023-04-13T20:41:21.795Z,100.00
2023-04-13T20:43:50.284Z,100.00
2023-04-13T20:46:16.945Z,100.00
2023-04-13T20:51:13.380Z,100.00
2023-04-13T20:53:39.873Z,100.00
2023-04-13T20:56:09.382Z,100.00
2023-04-13T20:58:37.344Z,100.00
2023-04-13T21:01:04.613Z,100.00
2023-04-13T21:03:31.948Z,100.00
2023-04-13T21:05:59.406Z,100.00
2023-04-13T21:08:27.282Z,100.00
2023-04-13T21:10:53.712Z,100.00
2023-04-13T21:13:22.259Z,100.00
2023-04-13T21:15:48.734Z,100.00
2023-04-13T21:18:15.267Z,100.00
2023-04-13T21:20:44.546Z,100.00
2023-04-13T21:23:11.101Z,100.00
2023-04-13T21:25:37.740Z,100.00
2023-04-13T21:28:04.388Z,100.00
2023-04-13T21:30:31.055Z,100.00
2023-04-13T21:32:57.554Z,100.00
2023-04-13T21:35:24.134Z,100.00
2023-04-13T21:37:50.606Z,100.00
2023-04-13T21:40:18.268Z,100.00
2023-04-13T21:42:45.034Z,100.00
2023-04-13T21:45:11.729Z,100.00
2023-04-13T21:47:38.411Z,100.00
2023-04-13T21:50:06.096Z,100.00
2023-04-13T21:52:32.584Z,100.00
2023-04-13T21:54:59.793Z,100.00
2023-04-13T21:57:26.724Z,100.00
2023-04-13T21:59:54.610Z,100.00
2023-04-13T22:02:21.372Z,100.00
2023-04-13T22:04:47.955Z,100.00
2023-04-13T22:07:14.532Z,100.00
2023-04-13T22:09:41.143Z,100.00
2023-04-13T22:12:07.664Z,100.00
2023-04-13T22:14:34.082Z,100.00
2023-04-13T22:17:00.550Z,100.00
2023-04-13T22:19:27.090Z,100.00
2023-04-13T22:21:53.548Z,100.00
2023-04-13T22:24:20.018Z,100.00
2023-04-13T22:26:46.778Z,100.00
2023-04-13T22:29:13.338Z,100.00
2023-04-13T22:31:39.817Z,100.00
2023-04-13T22:34:06.333Z,100.00
2023-04-13T22:36:32.778Z,100.00
2023-04-13T22:38:59.534Z,100.00
2023-04-13T22:41:26.281Z,100.00
2023-04-13T22:43:52.723Z,100.00
2023-04-13T22:46:19.403Z,100.00
2023-04-13T22:48:45.932Z,100.00
2023-04-13T22:51:12.384Z,100.00
2023-04-13T22:53:38.838Z,100.00
2023-04-13T22:56:05.572Z,100.00
2023-04-13T22:58:32.029Z,100.00
2023-04-13T23:00:59.340Z,100.00
2023-04-13T23:03:26.288Z,100.00
2023-04-13T23:05:52.884Z,100.00
2023-04-13T23:08:19.359Z,100.00
2023-04-13T23:10:45.831Z,100.00
2023-04-13T23:13:12.336Z,100.00
2023-04-13T23:15:39.384Z,100.00
2023-04-13T23:18:06.077Z,100.00
2023-04-13T23:20:32.624Z,100.00
2023-04-13T23:22:59.079Z,100.00
2023-04-13T23:25:25.543Z,100.00
2023-04-13T23:27:52.016Z,100.00
2023-04-13T23:30:18.568Z,100.00
2023-04-13T23:32:45.391Z,100.00
2023-04-13T23:35:11.931Z,100.00
2023-04-13T23:37:40.559Z,100.00
2023-04-13T23:40:07.947Z,100.00
2023-04-13T23:42:34.513Z,100.00
2023-04-13T23:45:01.248Z,100.00
2023-04-13T23:47:28.500Z,100.00
2023-04-13T23:49:55.745Z,100.00
2023-04-13T23:52:22.413Z,100.00
2023-04-13T23:54:48.885Z,100.00
2023-04-13T23:57:15.516Z,100.00
2023-04-13T23:59:41.986Z,100.00
